• Join FlightAware (Why Join?)
  • Login
  • US Flag 
02:02AM EDT


 

Airport Tracker/Info


-or-


 

Live Flight TrackerFlight Track Log ✈ UAL582 ✈ 12-Jul-2013 ✈ CYYZ - KORD

Flight Track Log - Related Links

Times and Time Zones

All times are in EDT time to prevent confusion due to time zone crossing. See the UAL582 flight status page for this flight to view local times or setup timezone preferences in your user account.

Time Position Orientation Groundspeed Altitude Reporting Facility
EDT Latitude Longitude Course Direction KTS MPH feet Rate Location/Type
07:06PM 43.7000 -79.6167 277° West 120 138 1,700  Level Toronto Center
07:07PM 43.7333 -79.5667 47° Northeast 220 253 3,400 2,100 Climbing Toronto Center
07:08PM 43.8000 -79.5667 360° North 260 299 5,900 1,800 Climbing Toronto Center
07:09PM 43.7129 -80.1210 277° West  Level FlightAware Approximate
07:09PM 43.8333 -79.6500 299° West 280 322 7,100  Level Toronto Center
07:10PM 43.7196 -80.2482 277° West  Level FlightAware Approximate
07:10PM 43.8167 -79.7667 259° West 290 334 7,000  Level Toronto Center
07:11PM 43.7311 -80.3749 277° West  Level FlightAware Approximate
07:11PM 43.8167 -79.8833 270° West 290 334 7,100  Level Toronto Center
07:12PM 43.8000 -80.0000 259° West 290 334 9,700 1,800 Climbing Toronto Center
07:13PM 43.7833 -80.1167 259° West 330 380 10,800 1,500 Climbing Toronto Center
07:14PM 43.7667 -80.2833 262° West 390 449 12,800 2,220 Climbing Toronto Center
07:15PM 43.7500 -80.4167 260° West 400 460 15,300 2,040 Climbing Toronto Center
07:16PM 43.7333 -80.5833 262° West 410 472 16,900 1,560 Climbing Toronto Center
07:17PM 43.7000 -80.7333 253° West 430 495 18,500 1,560 Climbing Toronto Center
07:18PM 43.6500 -80.9000 248° West 440 506 20,100 1,560 Climbing Toronto Center
07:19PM 43.6167 -81.0667 255° West 450 518 21,700 1,380 Climbing Toronto Center
07:20PM 43.5833 -81.2167 253° West 460 529 22,900 1,200 Climbing Toronto Center
07:21PM 43.5500 -81.4000 256° West 470 541 24,200 1,200 Climbing Toronto Center
07:22PM 43.5000 -81.5833 249° West 480 552 25,400 1,200 Climbing Toronto Center
07:23PM 43.4667 -81.7667 256° West 490 564 26,600 1,080 Climbing Toronto Center
07:24PM 43.4167 -81.9500 249° West 500 575 27,600 1,140 Climbing Toronto Center
07:25PM 43.3667 -82.1333 249° West 500 575 28,900 1,260 Climbing Toronto Center
07:26PM 43.3333 -82.3167 256° West 500 575 30,200 900 Climbing Toronto Center
07:27PM 43.3000 -82.5000 256° West 500 575 30,700 660 Climbing Toronto Center
07:28PM 43.2500 -82.6833 250° West 510 587 31,600 780 Climbing Toronto Center
07:28PM 43.2331 -82.7972 258° West 503 579 32,000 240 Climbing Cleveland Center
07:29PM 43.1814 -82.9806 249° West 517 595 32,000  Level Cleveland Center
07:30PM 43.1317 -83.1633 250° West 523 602 32,000  Level Cleveland Center
07:31PM 43.0817 -83.3433 249° West 523 602 32,000  Level Cleveland Center
07:32PM 43.0292 -83.5283 249° West 518 596 32,000  Level Cleveland Center
07:33PM 42.9808 -83.7022 249° West 513 590 32,000  Level Cleveland Center
07:34PM 42.9528 -83.8853 258° West 502 578 32,000  Level Cleveland Center
07:35PM 42.9347 -84.0714 263° West 495 570 32,000  Level Cleveland Center
07:36PM 42.9283 -84.1433 263° West 489 563 32,000  Level Chicago Center
07:37PM 42.9106 -84.3253 262° West 486 559 32,000  Level Chicago Center
07:38PM 42.8883 -84.5444 262° West 488 562 32,000  Level Chicago Center
07:39PM 42.8697 -84.7278 262° West 488 562 32,000  Level Chicago Center
07:40PM 42.8503 -84.9103 262° West 488 562 32,000 -180 Level Chicago Center
07:41PM 42.8308 -85.0947 262° West 491 565 31,700 -600 Descending Chicago Center
07:42PM 42.8103 -85.2772 261° West 490 564 30,800 -1,140 Descending Chicago Center
07:43PM 42.7919 -85.4475 262° West 463 533 29,400 -1,920 Descending Chicago Center
07:44PM 42.7611 -85.6397 258° West 435 501 26,800 -1,920 Descending Chicago Center
07:45PM 42.7325 -85.7958 256° West 427 491 25,500 -1,560 Descending Chicago Center
07:46PM 42.7056 -85.9433 256° West 405 466 23,600 -2,040 Descending Chicago Center
07:47PM 42.6800 -86.0833 256° West 384 442 21,300 -1,800 Descending Chicago Center
07:48PM 42.6550 -86.2222 256° West 379 436 20,000 -660 Descending Chicago Center
07:49PM 42.6281 -86.3578 255° West 371 427 20,000 -660 Level Chicago Center
07:50PM 42.6028 -86.4969 256° West 379 436 18,700 -1,800 Descending Chicago Center
07:51PM 42.5694 -86.6697 255° West 391 450 16,400 -2,520 Descending Chicago Center
07:52PM 42.5417 -86.8022 254° West 370 426 13,600 -2,640 Descending Chicago Center
07:53PM 42.5072 -86.9264 249° West 355 409 11,000 -1,860 Descending Chicago Center
07:54PM 42.4756 -87.0456 250° West 338 389 9,800 -960 Descending Chicago Center
07:55PM 42.4444 -87.1500 248° West 304 350 9,000 -420 Descending Chicago Center
07:56PM 42.4144 -87.2558 249° West 302 348 9,000  Level Chicago Center
07:57PM 42.3792 -87.3822 249° West 299 344 9,000  Level Chicago Center
07:58PM 42.3522 -87.4647 246° West 270 311 9,000  Level Chicago Center
07:59PM 42.3219 -87.5353 240° Southwest 226 260 9,000 -540 Level Chicago Center
08:01PM 42.2675 -87.6003 221° Southwest 219 252 7,900 -1,080 Descending Chicago Center
08:02PM 42.2225 -87.6497 219° Southwest 211 243 6,800 -1,080 Descending Chicago Center
08:03PM 42.1794 -87.6958 218° Southwest 201 231 5,700 -1,080 Descending Chicago Center
08:04PM 42.1383 -87.7439 221° Southwest 198 228 4,600 -1,080 Descending Chicago Center